sensor_id;sensor_type;location;lat;lon;timestamp;P1;durP1;ratioP1;P2;durP2;ratioP2
17949;SDS011;9100;48.700;9.316;2022-08-19T00:00:04;13.6;;;11.7;;
17949;SDS011;9100;48.700;9.316;2022-08-19T00:00:41;13.6;;;11.7;;
17949;SDS011;9100;48.700;9.316;2022-08-19T00:01:42;13.6;;;11.7;;
17949;SDS011;9100;48.700;9.316;2022-08-19T00:02:41;13.6;;;11.7;;
17949;SDS011;9100;48.700;9.316;2022-08-19T00:03:41;13.6;;;11.7;;
17949;SDS011;9100;48.700;9.316;2022-08-19T00:04:42;13.6;;;11.7;;
17949;SDS011;9100;48.700;9.316;2022-08-19T00:05:04;15.8;;;11.9;;
17949;SDS011;9100;48.700;9.316;2022-08-19T00:05:42;15.8;;;11.9;;
17949;SDS011;9100;48.700;9.316;2022-08-19T00:06:42;15.8;;;11.9;;
17949;SDS011;9100;48.700;9.316;2022-08-19T00:07:42;15.8;;;11.9;;
17949;SDS011;9100;48.700;9.316;2022-08-19T00:08:42;15.8;;;11.9;;
17949;SDS011;9100;48.700;9.316;2022-08-19T00:09:41;15.8;;;11.9;;
17949;SDS011;9100;48.700;9.316;2022-08-19T00:10:04;12.8;;;11.6;;
17949;SDS011;9100;48.700;9.316;2022-08-19T00:10:42;12.8;;;11.6;;
17949;SDS011;9100;48.700;9.316;2022-08-19T00:11:42;12.8;;;11.6;;
17949;SDS011;9100;48.700;9.316;2022-08-19T00:12:42;12.8;;;11.6;;
17949;SDS011;9100;48.700;9.316;2022-08-19T00:13:41;12.8;;;11.6;;
17949;SDS011;9100;48.700;9.316;2022-08-19T00:14:42;12.8;;;11.6;;
17949;SDS011;9100;48.700;9.316;2022-08-19T00:15:04;13.2;;;11.6;;
17949;SDS011;9100;48.700;9.316;2022-08-19T00:15:41;13.2;;;11.6;;
17949;SDS011;9100;48.700;9.316;2022-08-19T00:16:42;13.2;;;11.6;;
17949;SDS011;9100;48.700;9.316;2022-08-19T00:17:42;13.2;;;11.6;;
17949;SDS011;9100;48.700;9.316;2022-08-19T00:18:42;13.2;;;11.6;;
17949;SDS011;9100;48.700;9.316;2022-08-19T00:19:42;13.2;;;11.6;;
17949;SDS011;9100;48.700;9.316;2022-08-19T00:20:04;12.1;;;11;;
17949;SDS011;9100;48.700;9.316;2022-08-19T00:20:41;12.1;;;11;;
17949;SDS011;9100;48.700;9.316;2022-08-19T00:21:42;12.1;;;11;;
17949;SDS011;9100;48.700;9.316;2022-08-19T00:22:41;12.1;;;11;;
17949;SDS011;9100;48.700;9.316;2022-08-19T00:23:42;12.1;;;11;;
17949;SDS011;9100;48.700;9.316;2022-08-19T00:24:42;12.1;;;11;;
17949;SDS011;9100;48.700;9.316;2022-08-19T00:25:04;13.6;;;12.2;;
17949;SDS011;9100;48.700;9.316;2022-08-19T00:25:42;13.6;;;12.2;;
17949;SDS011;9100;48.700;9.316;2022-08-19T00:26:42;13.6;;;12.2;;
17949;SDS011;9100;48.700;9.316;2022-08-19T00:27:41;13.6;;;12.2;;
17949;SDS011;9100;48.700;9.316;2022-08-19T00:28:41;13.6;;;12.2;;
17949;SDS011;9100;48.700;9.316;2022-08-19T00:29:42;13.6;;;12.2;;
17949;SDS011;9100;48.700;9.316;2022-08-19T00:30:04;14.3;;;12.8;;
17949;SDS011;9100;48.700;9.316;2022-08-19T00:30:42;14.3;;;12.8;;
17949;SDS011;9100;48.700;9.316;2022-08-19T00:31:42;14.3;;;12.8;;
17949;SDS011;9100;48.700;9.316;2022-08-19T00:32:41;14.3;;;12.8;;
17949;SDS011;9100;48.700;9.316;2022-08-19T00:33:41;14.3;;;12.8;;
17949;SDS011;9100;48.700;9.316;2022-08-19T00:34:42;14.3;;;12.8;;
17949;SDS011;9100;48.700;9.316;2022-08-19T00:35:04;14.6;;;13.2;;
17949;SDS011;9100;48.700;9.316;2022-08-19T00:35:41;14.6;;;13.2;;
17949;SDS011;9100;48.700;9.316;2022-08-19T00:36:42;14.6;;;13.2;;
17949;SDS011;9100;48.700;9.316;2022-08-19T00:37:41;14.6;;;13.2;;
17949;SDS011;9100;48.700;9.316;2022-08-19T00:38:42;14.6;;;13.2;;
17949;SDS011;9100;48.700;9.316;2022-08-19T00:39:42;14.6;;;13.2;;
17949;SDS011;9100;48.700;9.316;2022-08-19T00:40:04;23.7;;;13.8;;
17949;SDS011;9100;48.700;9.316;2022-08-19T00:40:42;23.7;;;13.8;;
17949;SDS011;9100;48.700;9.316;2022-08-19T00:41:43;23.7;;;13.8;;
17949;SDS011;9100;48.700;9.316;2022-08-19T00:42:42;23.7;;;13.8;;
17949;SDS011;9100;48.700;9.316;2022-08-19T00:43:42;23.7;;;13.8;;
17949;SDS011;9100;48.700;9.316;2022-08-19T00:44:42;23.7;;;13.8;;
17949;SDS011;9100;48.700;9.316;2022-08-19T00:45:05;14.6;;;13.1;;
17949;SDS011;9100;48.700;9.316;2022-08-19T00:45:41;14.6;;;13.1;;
17949;SDS011;9100;48.700;9.316;2022-08-19T00:46:43;14.6;;;13.1;;
17949;SDS011;9100;48.700;9.316;2022-08-19T00:47:42;14.6;;;13.1;;
17949;SDS011;9100;48.700;9.316;2022-08-19T00:48:42;14.6;;;13.1;;
17949;SDS011;9100;48.700;9.316;2022-08-19T00:49:43;14.6;;;13.1;;
17949;SDS011;9100;48.700;9.316;2022-08-19T00:50:04;14.9;;;13.5;;
17949;SDS011;9100;48.700;9.316;2022-08-19T00:50:42;14.9;;;13.5;;
17949;SDS011;9100;48.700;9.316;2022-08-19T00:51:42;14.9;;;13.5;;
17949;SDS011;9100;48.700;9.316;2022-08-19T00:52:42;14.9;;;13.5;;
17949;SDS011;9100;48.700;9.316;2022-08-19T00:53:42;14.9;;;13.5;;
17949;SDS011;9100;48.700;9.316;2022-08-19T00:54:42;14.9;;;13.5;;
17949;SDS011;9100;48.700;9.316;2022-08-19T00:55:04;15.3;;;13.7;;
17949;SDS011;9100;48.700;9.316;2022-08-19T00:55:42;15.3;;;13.7;;
17949;SDS011;9100;48.700;9.316;2022-08-19T00:56:42;15.3;;;13.7;;
17949;SDS011;9100;48.700;9.316;2022-08-19T00:57:44;15.3;;;13.7;;
17949;SDS011;9100;48.700;9.316;2022-08-19T00:58:42;15.3;;;13.7;;
17949;SDS011;9100;48.700;9.316;2022-08-19T00:59:42;15.3;;;13.7;;
17949;SDS011;9100;48.700;9.316;2022-08-19T01:00:05;14.2;;;12.8;;
17949;SDS011;9100;48.700;9.316;2022-08-19T01:00:41;14.2;;;12.8;;
17949;SDS011;9100;48.700;9.316;2022-08-19T01:01:42;14.2;;;12.8;;
17949;SDS011;9100;48.700;9.316;2022-08-19T01:02:42;14.2;;;12.8;;
17949;SDS011;9100;48.700;9.316;2022-08-19T01:03:41;14.2;;;12.8;;
17949;SDS011;9100;48.700;9.316;2022-08-19T01:04:42;14.2;;;12.8;;
17949;SDS011;9100;48.700;9.316;2022-08-19T01:05:04;14.8;;;13.4;;
17949;SDS011;9100;48.700;9.316;2022-08-19T01:05:42;14.8;;;13.4;;
17949;SDS011;9100;48.700;9.316;2022-08-19T01:06:42;14.8;;;13.4;;
17949;SDS011;9100;48.700;9.316;2022-08-19T01:07:42;14.8;;;13.4;;
17949;SDS011;9100;48.700;9.316;2022-08-19T01:08:42;14.8;;;13.4;;
17949;SDS011;9100;48.700;9.316;2022-08-19T01:09:42;14.8;;;13.4;;
17949;SDS011;9100;48.700;9.316;2022-08-19T01:10:04;16;;;13.3;;
17949;SDS011;9100;48.700;9.316;2022-08-19T01:10:43;16;;;13.3;;
17949;SDS011;9100;48.700;9.316;2022-08-19T01:11:42;16;;;13.3;;
17949;SDS011;9100;48.700;9.316;2022-08-19T01:12:42;16;;;13.3;;
17949;SDS011;9100;48.700;9.316;2022-08-19T01:13:42;16;;;13.3;;
17949;SDS011;9100;48.700;9.316;2022-08-19T01:14:42;16;;;13.3;;
17949;SDS011;9100;48.700;9.316;2022-08-19T01:15:04;13.6;;;12.3;;
17949;SDS011;9100;48.700;9.316;2022-08-19T01:15:43;13.6;;;12.3;;
17949;SDS011;9100;48.700;9.316;2022-08-19T01:16:42;13.6;;;12.3;;
17949;SDS011;9100;48.700;9.316;2022-08-19T01:17:42;13.6;;;12.3;;
17949;SDS011;9100;48.700;9.316;2022-08-19T01:18:42;13.6;;;12.3;;
17949;SDS011;9100;48.700;9.316;2022-08-19T01:19:42;13.6;;;12.3;;
17949;SDS011;9100;48.700;9.316;2022-08-19T01:20:04;14.4;;;12.9;;
17949;SDS011;9100;48.700;9.316;2022-08-19T01:20:42;14.4;;;12.9;;
17949;SDS011;9100;48.700;9.316;2022-08-19T01:21:43;14.4;;;12.9;;
17949;SDS011;9100;48.700;9.316;2022-08-19T01:22:43;14.4;;;12.9;;
17949;SDS011;9100;48.700;9.316;2022-08-19T01:23:42;14.4;;;12.9;;
17949;SDS011;9100;48.700;9.316;2022-08-19T01:24:42;14.4;;;12.9;;
17949;SDS011;9100;48.700;9.316;2022-08-19T01:25:04;15.4;;;13.9;;
17949;SDS011;9100;48.700;9.316;2022-08-19T01:25:42;15.4;;;13.9;;
17949;SDS011;9100;48.700;9.316;2022-08-19T01:26:43;15.4;;;13.9;;
17949;SDS011;9100;48.700;9.316;2022-08-19T01:27:43;15.4;;;13.9;;
17949;SDS011;9100;48.700;9.316;2022-08-19T01:28:42;15.4;;;13.9;;
17949;SDS011;9100;48.700;9.316;2022-08-19T01:29:42;15.4;;;13.9;;
17949;SDS011;9100;48.700;9.316;2022-08-19T01:30:04;15.5;;;13.2;;
17949;SDS011;9100;48.700;9.316;2022-08-19T01:30:42;15.5;;;13.2;;
17949;SDS011;9100;48.700;9.316;2022-08-19T01:31:42;15.5;;;13.2;;
17949;SDS011;9100;48.700;9.316;2022-08-19T01:32:42;15.5;;;13.2;;
17949;SDS011;9100;48.700;9.316;2022-08-19T01:33:42;15.5;;;13.2;;
17949;SDS011;9100;48.700;9.316;2022-08-19T01:34:42;15.5;;;13.2;;
17949;SDS011;9100;48.700;9.316;2022-08-19T01:35:04;14.9;;;13.5;;
17949;SDS011;9100;48.700;9.316;2022-08-19T01:35:42;14.9;;;13.5;;
17949;SDS011;9100;48.700;9.316;2022-08-19T01:36:43;14.9;;;13.5;;
17949;SDS011;9100;48.700;9.316;2022-08-19T01:37:43;14.9;;;13.5;;
17949;SDS011;9100;48.700;9.316;2022-08-19T01:38:42;14.9;;;13.5;;
17949;SDS011;9100;48.700;9.316;2022-08-19T01:39:42;14.9;;;13.5;;
17949;SDS011;9100;48.700;9.316;2022-08-19T01:40:04;15.3;;;13.8;;
17949;SDS011;9100;48.700;9.316;2022-08-19T01:40:42;15.3;;;13.8;;
17949;SDS011;9100;48.700;9.316;2022-08-19T01:41:42;15.3;;;13.8;;
17949;SDS011;9100;48.700;9.316;2022-08-19T01:42:42;15.3;;;13.8;;
17949;SDS011;9100;48.700;9.316;2022-08-19T01:43:42;15.3;;;13.8;;
17949;SDS011;9100;48.700;9.316;2022-08-19T01:44:42;15.3;;;13.8;;
17949;SDS011;9100;48.700;9.316;2022-08-19T01:45:04;15.6;;;14;;
17949;SDS011;9100;48.700;9.316;2022-08-19T01:45:42;15.6;;;14;;
17949;SDS011;9100;48.700;9.316;2022-08-19T01:46:42;15.6;;;14;;
17949;SDS011;9100;48.700;9.316;2022-08-19T01:47:42;15.6;;;14;;
17949;SDS011;9100;48.700;9.316;2022-08-19T01:48:42;15.6;;;14;;
17949;SDS011;9100;48.700;9.316;2022-08-19T01:49:42;15.6;;;14;;
17949;SDS011;9100;48.700;9.316;2022-08-19T01:50:05;15.2;;;13.6;;
17949;SDS011;9100;48.700;9.316;2022-08-19T01:50:42;15.2;;;13.6;;
17949;SDS011;9100;48.700;9.316;2022-08-19T01:51:42;15.2;;;13.6;;
17949;SDS011;9100;48.700;9.316;2022-08-19T01:52:42;15.2;;;13.6;;
17949;SDS011;9100;48.700;9.316;2022-08-19T01:53:42;15.2;;;13.6;;
17949;SDS011;9100;48.700;9.316;2022-08-19T01:54:42;15.2;;;13.6;;
17949;SDS011;9100;48.700;9.316;2022-08-19T01:55:04;16.1;;;14;;
17949;SDS011;9100;48.700;9.316;2022-08-19T01:55:42;16.1;;;14;;
17949;SDS011;9100;48.700;9.316;2022-08-19T01:56:42;16.1;;;14;;
17949;SDS011;9100;48.700;9.316;2022-08-19T01:57:42;16.1;;;14;;
17949;SDS011;9100;48.700;9.316;2022-08-19T01:58:49;16.1;;;14;;
17949;SDS011;9100;48.700;9.316;2022-08-19T01:59:42;16.1;;;14;;
17949;SDS011;9100;48.700;9.316;2022-08-19T02:00:05;15;;;13.6;;
17949;SDS011;9100;48.700;9.316;2022-08-19T02:00:42;15;;;13.6;;
17949;SDS011;9100;48.700;9.316;2022-08-19T02:01:42;15;;;13.6;;
17949;SDS011;9100;48.700;9.316;2022-08-19T02:02:42;15;;;13.6;;
17949;SDS011;9100;48.700;9.316;2022-08-19T02:03:42;15;;;13.6;;
17949;SDS011;9100;48.700;9.316;2022-08-19T02:04:42;15;;;13.6;;
17949;SDS011;9100;48.700;9.316;2022-08-19T02:05:04;14.9;;;13.4;;
17949;SDS011;9100;48.700;9.316;2022-08-19T02:05:42;14.9;;;13.4;;
17949;SDS011;9100;48.700;9.316;2022-08-19T02:06:42;14.9;;;13.4;;
17949;SDS011;9100;48.700;9.316;2022-08-19T02:07:42;14.9;;;13.4;;
17949;SDS011;9100;48.700;9.316;2022-08-19T02:08:42;14.9;;;13.4;;
17949;SDS011;9100;48.700;9.316;2022-08-19T02:09:42;14.9;;;13.4;;
17949;SDS011;9100;48.700;9.316;2022-08-19T02:10:04;15.9;;;14.3;;
17949;SDS011;9100;48.700;9.316;2022-08-19T02:10:42;15.9;;;14.3;;
17949;SDS011;9100;48.700;9.316;2022-08-19T02:11:42;15.9;;;14.3;;
17949;SDS011;9100;48.700;9.316;2022-08-19T02:12:42;15.9;;;14.3;;
17949;SDS011;9100;48.700;9.316;2022-08-19T02:13:42;15.9;;;14.3;;
17949;SDS011;9100;48.700;9.316;2022-08-19T02:14:42;15.9;;;14.3;;
17949;SDS011;9100;48.700;9.316;2022-08-19T02:15:04;16;;;14.4;;
17949;SDS011;9100;48.700;9.316;2022-08-19T02:15:42;16;;;14.4;;
17949;SDS011;9100;48.700;9.316;2022-08-19T02:16:42;16;;;14.4;;
17949;SDS011;9100;48.700;9.316;2022-08-19T02:17:42;16;;;14.4;;
17949;SDS011;9100;48.700;9.316;2022-08-19T02:18:42;16;;;14.4;;
17949;SDS011;9100;48.700;9.316;2022-08-19T02:19:42;16;;;14.4;;
17949;SDS011;9100;48.700;9.316;2022-08-19T02:20:04;15.5;;;13.6;;
17949;SDS011;9100;48.700;9.316;2022-08-19T02:20:42;15.5;;;13.6;;
17949;SDS011;9100;48.700;9.316;2022-08-19T02:21:42;15.5;;;13.6;;
17949;SDS011;9100;48.700;9.316;2022-08-19T02:22:42;15.5;;;13.6;;
17949;SDS011;9100;48.700;9.316;2022-08-19T02:23:42;15.5;;;13.6;;
17949;SDS011;9100;48.700;9.316;2022-08-19T02:24:42;15.5;;;13.6;;
17949;SDS011;9100;48.700;9.316;2022-08-19T02:25:04;15.9;;;14.3;;
17949;SDS011;9100;48.700;9.316;2022-08-19T02:25:42;15.9;;;14.3;;
17949;SDS011;9100;48.700;9.316;2022-08-19T02:26:42;15.9;;;14.3;;
17949;SDS011;9100;48.700;9.316;2022-08-19T02:27:42;15.9;;;14.3;;
17949;SDS011;9100;48.700;9.316;2022-08-19T02:28:42;15.9;;;14.3;;
17949;SDS011;9100;48.700;9.316;2022-08-19T02:29:42;15.9;;;14.3;;
17949;SDS011;9100;48.700;9.316;2022-08-19T02:30:04;14.9;;;13.3;;
17949;SDS011;9100;48.700;9.316;2022-08-19T02:30:42;14.9;;;13.3;;
17949;SDS011;9100;48.700;9.316;2022-08-19T02:31:42;14.9;;;13.3;;
17949;SDS011;9100;48.700;9.316;2022-08-19T02:32:42;14.9;;;13.3;;
17949;SDS011;9100;48.700;9.316;2022-08-19T02:33:42;14.9;;;13.3;;
17949;SDS011;9100;48.700;9.316;2022-08-19T02:34:42;14.9;;;13.3;;
17949;SDS011;9100;48.700;9.316;2022-08-19T02:35:04;17.1;;;14.5;;
17949;SDS011;9100;48.700;9.316;2022-08-19T02:35:42;17.1;;;14.5;;
17949;SDS011;9100;48.700;9.316;2022-08-19T02:36:42;17.1;;;14.5;;
17949;SDS011;9100;48.700;9.316;2022-08-19T02:37:42;17.1;;;14.5;;
17949;SDS011;9100;48.700;9.316;2022-08-19T02:38:42;17.1;;;14.5;;
17949;SDS011;9100;48.700;9.316;2022-08-19T02:39:42;17.1;;;14.5;;
17949;SDS011;9100;48.700;9.316;2022-08-19T02:40:04;16;;;14.3;;
17949;SDS011;9100;48.700;9.316;2022-08-19T02:40:47;16;;;14.3;;
17949;SDS011;9100;48.700;9.316;2022-08-19T02:41:42;16;;;14.3;;
17949;SDS011;9100;48.700;9.316;2022-08-19T02:42:42;16;;;14.3;;
17949;SDS011;9100;48.700;9.316;2022-08-19T02:43:42;16;;;14.3;;
17949;SDS011;9100;48.700;9.316;2022-08-19T02:44:42;16;;;14.3;;
17949;SDS011;9100;48.700;9.316;2022-08-19T02:45:04;16.1;;;13.8;;
17949;SDS011;9100;48.700;9.316;2022-08-19T02:45:42;16.1;;;13.8;;
17949;SDS011;9100;48.700;9.316;2022-08-19T02:46:42;16.1;;;13.8;;
17949;SDS011;9100;48.700;9.316;2022-08-19T02:47:42;16.1;;;13.8;;
17949;SDS011;9100;48.700;9.316;2022-08-19T02:48:42;16.1;;;13.8;;
17949;SDS011;9100;48.700;9.316;2022-08-19T02:49:42;16.1;;;13.8;;
17949;SDS011;9100;48.700;9.316;2022-08-19T02:50:04;17.8;;;15.9;;
17949;SDS011;9100;48.700;9.316;2022-08-19T02:50:42;17.8;;;15.9;;
17949;SDS011;9100;48.700;9.316;2022-08-19T02:51:43;17.8;;;15.9;;
17949;SDS011;9100;48.700;9.316;2022-08-19T02:52:42;17.8;;;15.9;;
17949;SDS011;9100;48.700;9.316;2022-08-19T02:53:42;17.8;;;15.9;;
17949;SDS011;9100;48.700;9.316;2022-08-19T02:54:42;17.8;;;15.9;;
17949;SDS011;9100;48.700;9.316;2022-08-19T02:55:04;20.1;;;14.5;;
17949;SDS011;9100;48.700;9.316;2022-08-19T02:55:42;20.1;;;14.5;;
17949;SDS011;9100;48.700;9.316;2022-08-19T02:56:43;20.1;;;14.5;;
17949;SDS011;9100;48.700;9.316;2022-08-19T02:57:42;20.1;;;14.5;;
17949;SDS011;9100;48.700;9.316;2022-08-19T02:58:42;20.1;;;14.5;;
17949;SDS011;9100;48.700;9.316;2022-08-19T02:59:42;20.1;;;14.5;;
17949;SDS011;9100;48.700;9.316;2022-08-19T03:00:04;16.9;;;15.2;;
17949;SDS011;9100;48.700;9.316;2022-08-19T03:00:43;16.9;;;15.2;;
17949;SDS011;9100;48.700;9.316;2022-08-19T03:01:42;16.9;;;15.2;;
17949;SDS011;9100;48.700;9.316;2022-08-19T03:02:42;16.9;;;15.2;;
17949;SDS011;9100;48.700;9.316;2022-08-19T03:03:42;16.9;;;15.2;;
17949;SDS011;9100;48.700;9.316;2022-08-19T03:04:42;16.9;;;15.2;;
17949;SDS011;9100;48.700;9.316;2022-08-19T03:05:04;18;;;16.1;;
17949;SDS011;9100;48.700;9.316;2022-08-19T03:05:42;18;;;16.1;;
17949;SDS011;9100;48.700;9.316;2022-08-19T03:06:43;18;;;16.1;;
17949;SDS011;9100;48.700;9.316;2022-08-19T03:07:42;18;;;16.1;;
17949;SDS011;9100;48.700;9.316;2022-08-19T03:08:42;18;;;16.1;;
17949;SDS011;9100;48.700;9.316;2022-08-19T03:09:42;18;;;16.1;;
17949;SDS011;9100;48.700;9.316;2022-08-19T03:10:04;18.1;;;15.1;;
17949;SDS011;9100;48.700;9.316;2022-08-19T03:10:42;18.1;;;15.1;;
17949;SDS011;9100;48.700;9.316;2022-08-19T03:11:42;18.1;;;15.1;;
17949;SDS011;9100;48.700;9.316;2022-08-19T03:12:42;18.1;;;15.1;;
17949;SDS011;9100;48.700;9.316;2022-08-19T03:13:42;18.1;;;15.1;;
17949;SDS011;9100;48.700;9.316;2022-08-19T03:14:42;18.1;;;15.1;;
17949;SDS011;9100;48.700;9.316;2022-08-19T03:15:04;17.9;;;15.8;;
17949;SDS011;9100;48.700;9.316;2022-08-19T03:15:42;17.9;;;15.8;;
17949;SDS011;9100;48.700;9.316;2022-08-19T03:16:42;17.9;;;15.8;;
17949;SDS011;9100;48.700;9.316;2022-08-19T03:17:42;17.9;;;15.8;;
17949;SDS011;9100;48.700;9.316;2022-08-19T03:18:42;17.9;;;15.8;;
17949;SDS011;9100;48.700;9.316;2022-08-19T03:19:42;17.9;;;15.8;;
17949;SDS011;9100;48.700;9.316;2022-08-19T03:20:04;20.6;;;15.4;;
17949;SDS011;9100;48.700;9.316;2022-08-19T03:20:42;20.6;;;15.4;;
17949;SDS011;9100;48.700;9.316;2022-08-19T03:21:42;20.6;;;15.4;;
17949;SDS011;9100;48.700;9.316;2022-08-19T03:22:42;20.6;;;15.4;;
17949;SDS011;9100;48.700;9.316;2022-08-19T03:23:42;20.6;;;15.4;;
17949;SDS011;9100;48.700;9.316;2022-08-19T03:24:42;20.6;;;15.4;;
17949;SDS011;9100;48.700;9.316;2022-08-19T03:25:04;19;;;17;;
17949;SDS011;9100;48.700;9.316;2022-08-19T03:25:43;19;;;17;;
17949;SDS011;9100;48.700;9.316;2022-08-19T03:26:44;19;;;17;;
17949;SDS011;9100;48.700;9.316;2022-08-19T03:27:42;19;;;17;;
17949;SDS011;9100;48.700;9.316;2022-08-19T03:28:42;19;;;17;;
17949;SDS011;9100;48.700;9.316;2022-08-19T03:29:42;19;;;17;;
17949;SDS011;9100;48.700;9.316;2022-08-19T03:30:04;25.5;;;17;;
17949;SDS011;9100;48.700;9.316;2022-08-19T03:30:53;25.5;;;17;;
17949;SDS011;9100;48.700;9.316;2022-08-19T03:31:42;25.5;;;17;;
17949;SDS011;9100;48.700;9.316;2022-08-19T03:32:42;25.5;;;17;;
17949;SDS011;9100;48.700;9.316;2022-08-19T03:33:42;25.5;;;17;;
17949;SDS011;9100;48.700;9.316;2022-08-19T03:34:42;25.5;;;17;;
17949;SDS011;9100;48.700;9.316;2022-08-19T03:35:04;19.5;;;17.3;;
17949;SDS011;9100;48.700;9.316;2022-08-19T03:35:42;19.5;;;17.3;;
17949;SDS011;9100;48.700;9.316;2022-08-19T03:36:42;19.5;;;17.3;;
17949;SDS011;9100;48.700;9.316;2022-08-19T03:37:42;19.5;;;17.3;;
17949;SDS011;9100;48.700;9.316;2022-08-19T03:38:43;19.5;;;17.3;;
17949;SDS011;9100;48.700;9.316;2022-08-19T03:39:42;19.5;;;17.3;;
17949;SDS011;9100;48.700;9.316;2022-08-19T03:40:04;21.4;;;17.8;;
17949;SDS011;9100;48.700;9.316;2022-08-19T03:40:42;21.4;;;17.8;;
17949;SDS011;9100;48.700;9.316;2022-08-19T03:41:42;21.4;;;17.8;;
17949;SDS011;9100;48.700;9.316;2022-08-19T03:42:42;21.4;;;17.8;;
17949;SDS011;9100;48.700;9.316;2022-08-19T03:43:42;21.4;;;17.8;;
17949;SDS011;9100;48.700;9.316;2022-08-19T03:44:42;21.4;;;17.8;;
17949;SDS011;9100;48.700;9.316;2022-08-19T03:45:04;20;;;17.5;;
17949;SDS011;9100;48.700;9.316;2022-08-19T03:45:42;20;;;17.5;;
17949;SDS011;9100;48.700;9.316;2022-08-19T03:46:42;20;;;17.5;;
17949;SDS011;9100;48.700;9.316;2022-08-19T03:47:42;20;;;17.5;;
17949;SDS011;9100;48.700;9.316;2022-08-19T03:48:43;20;;;17.5;;
17949;SDS011;9100;48.700;9.316;2022-08-19T03:49:42;20;;;17.5;;
17949;SDS011;9100;48.700;9.316;2022-08-19T03:50:04;20.5;;;18.3;;
17949;SDS011;9100;48.700;9.316;2022-08-19T03:50:42;20.5;;;18.3;;
17949;SDS011;9100;48.700;9.316;2022-08-19T03:51:42;20.5;;;18.3;;
17949;SDS011;9100;48.700;9.316;2022-08-19T03:52:42;20.5;;;18.3;;
17949;SDS011;9100;48.700;9.316;2022-08-19T03:53:42;20.5;;;18.3;;
17949;SDS011;9100;48.700;9.316;2022-08-19T03:54:42;20.5;;;18.3;;
17949;SDS011;9100;48.700;9.316;2022-08-19T03:55:04;22.5;;;18.3;;
17949;SDS011;9100;48.700;9.316;2022-08-19T03:55:42;22.5;;;18.3;;
17949;SDS011;9100;48.700;9.316;2022-08-19T03:56:42;22.5;;;18.3;;
17949;SDS011;9100;48.700;9.316;2022-08-19T03:57:42;22.5;;;18.3;;
17949;SDS011;9100;48.700;9.316;2022-08-19T03:58:42;22.5;;;18.3;;
17949;SDS011;9100;48.700;9.316;2022-08-19T03:59:42;22.5;;;18.3;;
17949;SDS011;9100;48.700;9.316;2022-08-19T04:00:04;20.6;;;18.3;;
17949;SDS011;9100;48.700;9.316;2022-08-19T04:00:42;20.6;;;18.3;;
17949;SDS011;9100;48.700;9.316;2022-08-19T04:01:42;20.6;;;18.3;;
17949;SDS011;9100;48.700;9.316;2022-08-19T04:02:42;20.6;;;18.3;;
17949;SDS011;9100;48.700;9.316;2022-08-19T04:03:42;20.6;;;18.3;;
17949;SDS011;9100;48.700;9.316;2022-08-19T04:04:42;20.6;;;18.3;;
17949;SDS011;9100;48.700;9.316;2022-08-19T04:05:04;21.3;;;18.5;;
17949;SDS011;9100;48.700;9.316;2022-08-19T04:05:42;21.3;;;18.5;;
17949;SDS011;9100;48.700;9.316;2022-08-19T04:06:42;21.3;;;18.5;;
17949;SDS011;9100;48.700;9.316;2022-08-19T04:07:42;21.3;;;18.5;;
17949;SDS011;9100;48.700;9.316;2022-08-19T04:08:42;21.3;;;18.5;;
17949;SDS011;9100;48.700;9.316;2022-08-19T04:09:42;21.3;;;18.5;;
17949;SDS011;9100;48.700;9.316;2022-08-19T04:10:04;22.1;;;18.7;;
17949;SDS011;9100;48.700;9.316;2022-08-19T04:10:42;22.1;;;18.7;;
17949;SDS011;9100;48.700;9.316;2022-08-19T04:11:43;22.1;;;18.7;;
17949;SDS011;9100;48.700;9.316;2022-08-19T04:12:42;22.1;;;18.7;;
17949;SDS011;9100;48.700;9.316;2022-08-19T04:13:42;22.1;;;18.7;;
17949;SDS011;9100;48.700;9.316;2022-08-19T04:14:42;22.1;;;18.7;;
17949;SDS011;9100;48.700;9.316;2022-08-19T04:15:04;22.3;;;19.9;;
17949;SDS011;9100;48.700;9.316;2022-08-19T04:15:43;22.3;;;19.9;;
17949;SDS011;9100;48.700;9.316;2022-08-19T04:16:42;22.3;;;19.9;;
17949;SDS011;9100;48.700;9.316;2022-08-19T04:17:42;22.3;;;19.9;;
17949;SDS011;9100;48.700;9.316;2022-08-19T04:18:42;22.3;;;19.9;;
17949;SDS011;9100;48.700;9.316;2022-08-19T04:19:42;22.3;;;19.9;;
17949;SDS011;9100;48.700;9.316;2022-08-19T04:20:04;23.5;;;20.8;;
17949;SDS011;9100;48.700;9.316;2022-08-19T04:20:42;23.5;;;20.8;;
17949;SDS011;9100;48.700;9.316;2022-08-19T04:21:43;23.5;;;20.8;;
17949;SDS011;9100;48.700;9.316;2022-08-19T04:22:42;23.5;;;20.8;;
17949;SDS011;9100;48.700;9.316;2022-08-19T04:23:42;23.5;;;20.8;;
17949;SDS011;9100;48.700;9.316;2022-08-19T04:24:42;23.5;;;20.8;;
17949;SDS011;9100;48.700;9.316;2022-08-19T04:25:04;25.9;;;22;;
17949;SDS011;9100;48.700;9.316;2022-08-19T04:25:43;25.9;;;22;;
17949;SDS011;9100;48.700;9.316;2022-08-19T04:26:42;25.9;;;22;;
17949;SDS011;9100;48.700;9.316;2022-08-19T04:27:42;25.9;;;22;;
17949;SDS011;9100;48.700;9.316;2022-08-19T04:28:42;25.9;;;22;;
17949;SDS011;9100;48.700;9.316;2022-08-19T04:29:42;25.9;;;22;;
17949;SDS011;9100;48.700;9.316;2022-08-19T04:30:04;23.7;;;21.2;;
17949;SDS011;9100;48.700;9.316;2022-08-19T04:30:42;23.7;;;21.2;;
17949;SDS011;9100;48.700;9.316;2022-08-19T04:31:43;23.7;;;21.2;;
17949;SDS011;9100;48.700;9.316;2022-08-19T04:32:42;23.7;;;21.2;;
17949;SDS011;9100;48.700;9.316;2022-08-19T04:33:42;23.7;;;21.2;;
17949;SDS011;9100;48.700;9.316;2022-08-19T04:34:42;23.7;;;21.2;;
17949;SDS011;9100;48.700;9.316;2022-08-19T04:35:04;28.4;;;21.3;;
17949;SDS011;9100;48.700;9.316;2022-08-19T04:35:43;28.4;;;21.3;;
17949;SDS011;9100;48.700;9.316;2022-08-19T04:36:43;28.4;;;21.3;;
17949;SDS011;9100;48.700;9.316;2022-08-19T04:37:42;28.4;;;21.3;;
17949;SDS011;9100;48.700;9.316;2022-08-19T04:38:42;28.4;;;21.3;;
17949;SDS011;9100;48.700;9.316;2022-08-19T04:39:42;28.4;;;21.3;;
17949;SDS011;9100;48.700;9.316;2022-08-19T04:40:06;26.1;;;21.2;;
17949;SDS011;9100;48.700;9.316;2022-08-19T04:40:43;26.1;;;21.2;;
17949;SDS011;9100;48.700;9.316;2022-08-19T04:41:42;26.1;;;21.2;;
17949;SDS011;9100;48.700;9.316;2022-08-19T04:42:42;26.1;;;21.2;;
17949;SDS011;9100;48.700;9.316;2022-08-19T04:43:42;26.1;;;21.2;;
17949;SDS011;9100;48.700;9.316;2022-08-19T04:44:42;26.1;;;21.2;;
17949;SDS011;9100;48.700;9.316;2022-08-19T04:45:04;25.5;;;21.3;;
17949;SDS011;9100;48.700;9.316;2022-08-19T04:45:42;25.5;;;21.3;;
17949;SDS011;9100;48.700;9.316;2022-08-19T04:46:42;25.5;;;21.3;;
17949;SDS011;9100;48.700;9.316;2022-08-19T04:47:42;25.5;;;21.3;;
17949;SDS011;9100;48.700;9.316;2022-08-19T04:48:42;25.5;;;21.3;;
17949;SDS011;9100;48.700;9.316;2022-08-19T04:49:42;25.5;;;21.3;;
17949;SDS011;9100;48.700;9.316;2022-08-19T04:50:04;21.5;;;19.2;;
17949;SDS011;9100;48.700;9.316;2022-08-19T04:50:42;21.5;;;19.2;;
17949;SDS011;9100;48.700;9.316;2022-08-19T04:51:44;21.5;;;19.2;;
17949;SDS011;9100;48.700;9.316;2022-08-19T04:52:42;21.5;;;19.2;;
17949;SDS011;9100;48.700;9.316;2022-08-19T04:53:42;21.5;;;19.2;;
17949;SDS011;9100;48.700;9.316;2022-08-19T04:54:42;21.5;;;19.2;;
17949;SDS011;9100;48.700;9.316;2022-08-19T04:55:04;23.1;;;20.7;;
17949;SDS011;9100;48.700;9.316;2022-08-19T04:55:42;23.1;;;20.7;;
17949;SDS011;9100;48.700;9.316;2022-08-19T04:56:42;23.1;;;20.7;;
17949;SDS011;9100;48.700;9.316;2022-08-19T04:57:42;23.1;;;20.7;;
17949;SDS011;9100;48.700;9.316;2022-08-19T04:58:43;23.1;;;20.7;;
17949;SDS011;9100;48.700;9.316;2022-08-19T04:59:42;23.1;;;20.7;;
17949;SDS011;9100;48.700;9.316;2022-08-19T05:00:04;23.9;;;21.1;;
17949;SDS011;9100;48.700;9.316;2022-08-19T05:00:42;23.9;;;21.1;;
17949;SDS011;9100;48.700;9.316;2022-08-19T05:01:42;23.9;;;21.1;;
17949;SDS011;9100;48.700;9.316;2022-08-19T05:02:42;23.9;;;21.1;;
17949;SDS011;9100;48.700;9.316;2022-08-19T05:03:42;23.9;;;21.1;;
17949;SDS011;9100;48.700;9.316;2022-08-19T05:04:42;23.9;;;21.1;;
17949;SDS011;9100;48.700;9.316;2022-08-19T05:05:04;22.4;;;17.7;;
17949;SDS011;9100;48.700;9.316;2022-08-19T05:05:42;22.4;;;17.7;;
17949;SDS011;9100;48.700;9.316;2022-08-19T05:06:42;22.4;;;17.7;;
17949;SDS011;9100;48.700;9.316;2022-08-19T05:07:42;22.4;;;17.7;;